sensor_id;sensor_type;location;lat;lon;timestamp;temperature;humidity
22716;DHT22;11525;51.152;4.456;2023-02-16T00:01:33;7.00;99.90
22716;DHT22;11525;51.152;4.456;2023-02-16T00:04:00;6.90;99.90
22716;DHT22;11525;51.152;4.456;2023-02-16T00:06:27;6.90;99.90
22716;DHT22;11525;51.152;4.456;2023-02-16T00:08:55;6.80;99.90
22716;DHT22;11525;51.152;4.456;2023-02-16T00:11:33;6.80;99.90
22716;DHT22;11525;51.152;4.456;2023-02-16T00:14:19;6.90;99.90
22716;DHT22;11525;51.152;4.456;2023-02-16T00:16:54;6.80;99.90
22716;DHT22;11525;51.152;4.456;2023-02-16T00:19:24;6.80;99.90
22716;DHT22;11525;51.152;4.456;2023-02-16T00:21:56;6.90;99.90
22716;DHT22;11525;51.152;4.456;2023-02-16T00:24:23;7.00;99.90
22716;DHT22;11525;51.152;4.456;2023-02-16T00:26:49;6.90;99.90
22716;DHT22;11525;51.152;4.456;2023-02-16T00:29:29;7.00;99.90
22716;DHT22;11525;51.152;4.456;2023-02-16T00:31:57;6.90;99.90
22716;DHT22;11525;51.152;4.456;2023-02-16T00:34:33;6.90;99.90
22716;DHT22;11525;51.152;4.456;2023-02-16T00:37:02;6.90;99.90
22716;DHT22;11525;51.152;4.456;2023-02-16T00:39:28;6.90;99.90
22716;DHT22;11525;51.152;4.456;2023-02-16T00:41:56;6.90;99.90
22716;DHT22;11525;51.152;4.456;2023-02-16T00:46:54;6.90;99.90
22716;DHT22;11525;51.152;4.456;2023-02-16T00:49:21;6.80;99.90
22716;DHT22;11525;51.152;4.456;2023-02-16T00:51:48;6.90;99.90
22716;DHT22;11525;51.152;4.456;2023-02-16T00:54:14;6.90;99.90
22716;DHT22;11525;51.152;4.456;2023-02-16T00:56:40;6.80;99.90
22716;DHT22;11525;51.152;4.456;2023-02-16T00:59:14;6.80;99.90
22716;DHT22;11525;51.152;4.456;2023-02-16T01:01:43;6.90;99.90
22716;DHT22;11525;51.152;4.456;2023-02-16T01:04:11;6.80;99.90
22716;DHT22;11525;51.152;4.456;2023-02-16T01:06:40;6.90;99.90
22716;DHT22;11525;51.152;4.456;2023-02-16T01:09:24;6.90;99.90
22716;DHT22;11525;51.152;4.456;2023-02-16T01:12:14;7.00;99.90
22716;DHT22;11525;51.152;4.456;2023-02-16T01:14:40;6.90;99.90
22716;DHT22;11525;51.152;4.456;2023-02-16T01:17:06;6.90;99.90
22716;DHT22;11525;51.152;4.456;2023-02-16T01:19:31;6.80;99.90
22716;DHT22;11525;51.152;4.456;2023-02-16T01:21:57;6.70;99.90
22716;DHT22;11525;51.152;4.456;2023-02-16T01:24:23;6.60;99.90
22716;DHT22;11525;51.152;4.456;2023-02-16T01:26:49;6.60;99.90
22716;DHT22;11525;51.152;4.456;2023-02-16T01:29:17;6.60;99.90
22716;DHT22;11525;51.152;4.456;2023-02-16T01:31:44;6.70;99.90
22716;DHT22;11525;51.152;4.456;2023-02-16T01:34:10;6.60;99.90
22716;DHT22;11525;51.152;4.456;2023-02-16T01:36:38;6.60;99.90
22716;DHT22;11525;51.152;4.456;2023-02-16T01:39:06;6.60;99.90
22716;DHT22;11525;51.152;4.456;2023-02-16T01:41:49;6.70;99.90
22716;DHT22;11525;51.152;4.456;2023-02-16T01:44:22;6.60;99.90
22716;DHT22;11525;51.152;4.456;2023-02-16T01:49:16;6.60;99.90
22716;DHT22;11525;51.152;4.456;2023-02-16T01:52:04;6.60;99.90
22716;DHT22;11525;51.152;4.456;2023-02-16T01:54:42;6.60;99.90
22716;DHT22;11525;51.152;4.456;2023-02-16T01:57:36;6.60;99.90
22716;DHT22;11525;51.152;4.456;2023-02-16T02:00:15;6.60;99.90
22716;DHT22;11525;51.152;4.456;2023-02-16T02:02:45;6.40;99.90
22716;DHT22;11525;51.152;4.456;2023-02-16T02:05:22;6.40;99.90
22716;DHT22;11525;51.152;4.456;2023-02-16T02:10:53;6.50;99.90
22716;DHT22;11525;51.152;4.456;2023-02-16T02:13:40;6.60;99.90
22716;DHT22;11525;51.152;4.456;2023-02-16T02:16:07;6.70;99.90
22716;DHT22;11525;51.152;4.456;2023-02-16T02:18:34;6.60;99.90
22716;DHT22;11525;51.152;4.456;2023-02-16T02:43:24;6.40;99.90
22716;DHT22;11525;51.152;4.456;2023-02-16T02:46:07;6.40;99.90
22716;DHT22;11525;51.152;4.456;2023-02-16T02:48:34;6.40;99.90
22716;DHT22;11525;51.152;4.456;2023-02-16T02:51:03;6.30;99.90
22716;DHT22;11525;51.152;4.456;2023-02-16T02:54:00;6.30;99.90
22716;DHT22;11525;51.152;4.456;2023-02-16T02:56:51;6.30;99.90
22716;DHT22;11525;51.152;4.456;2023-02-16T02:59:39;6.30;99.90
22716;DHT22;11525;51.152;4.456;2023-02-16T03:02:25;6.40;99.90
22716;DHT22;11525;51.152;4.456;2023-02-16T03:04:55;6.40;99.90
22716;DHT22;11525;51.152;4.456;2023-02-16T03:07:22;6.40;99.90
22716;DHT22;11525;51.152;4.456;2023-02-16T03:10:09;6.40;99.90
22716;DHT22;11525;51.152;4.456;2023-02-16T03:12:55;6.50;99.90
22716;DHT22;11525;51.152;4.456;2023-02-16T03:15:23;6.50;99.90
22716;DHT22;11525;51.152;4.456;2023-02-16T03:17:51;6.50;99.90
22716;DHT22;11525;51.152;4.456;2023-02-16T03:20:36;6.60;99.90
22716;DHT22;11525;51.152;4.456;2023-02-16T03:23:21;6.50;99.90
22716;DHT22;11525;51.152;4.456;2023-02-16T03:26:06;6.50;99.90
22716;DHT22;11525;51.152;4.456;2023-02-16T03:28:54;6.60;99.90
22716;DHT22;11525;51.152;4.456;2023-02-16T03:31:39;6.60;99.90
22716;DHT22;11525;51.152;4.456;2023-02-16T03:34:06;6.60;99.90
22716;DHT22;11525;51.152;4.456;2023-02-16T03:36:34;6.60;99.90
22716;DHT22;11525;51.152;4.456;2023-02-16T03:39:03;6.60;99.90
22716;DHT22;11525;51.152;4.456;2023-02-16T03:41:37;6.50;99.90
22716;DHT22;11525;51.152;4.456;2023-02-16T03:44:03;6.50;99.90
22716;DHT22;11525;51.152;4.456;2023-02-16T03:46:30;6.50;99.90
22716;DHT22;11525;51.152;4.456;2023-02-16T03:48:56;6.50;99.90
22716;DHT22;11525;51.152;4.456;2023-02-16T03:51:21;6.60;99.90
22716;DHT22;11525;51.152;4.456;2023-02-16T03:53:47;6.80;99.90
22716;DHT22;11525;51.152;4.456;2023-02-16T03:56:14;6.80;99.90
22716;DHT22;11525;51.152;4.456;2023-02-16T03:58:40;7.00;99.90
22716;DHT22;11525;51.152;4.456;2023-02-16T04:01:06;7.10;99.90
22716;DHT22;11525;51.152;4.456;2023-02-16T04:03:32;7.30;99.90
22716;DHT22;11525;51.152;4.456;2023-02-16T04:05:59;7.30;99.90
22716;DHT22;11525;51.152;4.456;2023-02-16T04:08:24;7.20;99.90
22716;DHT22;11525;51.152;4.456;2023-02-16T04:10:50;7.30;99.90
22716;DHT22;11525;51.152;4.456;2023-02-16T04:13:16;7.30;99.90
22716;DHT22;11525;51.152;4.456;2023-02-16T04:15:42;7.30;99.90
22716;DHT22;11525;51.152;4.456;2023-02-16T04:18:07;7.30;99.90
22716;DHT22;11525;51.152;4.456;2023-02-16T04:20:34;7.30;99.90
22716;DHT22;11525;51.152;4.456;2023-02-16T04:23:03;7.40;99.90
22716;DHT22;11525;51.152;4.456;2023-02-16T04:25:29;7.40;99.90
22716;DHT22;11525;51.152;4.456;2023-02-16T04:27:57;7.50;99.90
22716;DHT22;11525;51.152;4.456;2023-02-16T04:30:25;7.60;99.90
22716;DHT22;11525;51.152;4.456;2023-02-16T04:32:52;7.60;99.90
22716;DHT22;11525;51.152;4.456;2023-02-16T04:35:18;7.70;99.90
22716;DHT22;11525;51.152;4.456;2023-02-16T04:37:44;7.70;99.90
22716;DHT22;11525;51.152;4.456;2023-02-16T04:40:11;7.70;99.90
22716;DHT22;11525;51.152;4.456;2023-02-16T04:42:40;7.70;99.90
22716;DHT22;11525;51.152;4.456;2023-02-16T04:45:06;7.70;99.90
22716;DHT22;11525;51.152;4.456;2023-02-16T04:47:32;7.80;99.90
22716;DHT22;11525;51.152;4.456;2023-02-16T04:49:58;7.80;99.90
22716;DHT22;11525;51.152;4.456;2023-02-16T04:52:24;7.80;99.90
22716;DHT22;11525;51.152;4.456;2023-02-16T04:54:50;7.80;99.90
22716;DHT22;11525;51.152;4.456;2023-02-16T04:57:16;7.80;99.90
22716;DHT22;11525;51.152;4.456;2023-02-16T04:59:42;7.70;99.90
22716;DHT22;11525;51.152;4.456;2023-02-16T05:02:07;7.60;99.90
22716;DHT22;11525;51.152;4.456;2023-02-16T05:04:33;7.60;99.90
22716;DHT22;11525;51.152;4.456;2023-02-16T05:06:59;7.70;99.90
22716;DHT22;11525;51.152;4.456;2023-02-16T05:09:25;7.80;99.90
22716;DHT22;11525;51.152;4.456;2023-02-16T05:11:51;7.80;99.90
22716;DHT22;11525;51.152;4.456;2023-02-16T05:14:52;7.90;99.90
22716;DHT22;11525;51.152;4.456;2023-02-16T05:17:20;7.90;99.90
22716;DHT22;11525;51.152;4.456;2023-02-16T05:19:52;7.80;99.90
22716;DHT22;11525;51.152;4.456;2023-02-16T05:22:18;7.80;99.90
22716;DHT22;11525;51.152;4.456;2023-02-16T05:24:45;7.80;99.90
22716;DHT22;11525;51.152;4.456;2023-02-16T05:27:33;7.90;99.90
22716;DHT22;11525;51.152;4.456;2023-02-16T05:29:58;7.90;99.90
22716;DHT22;11525;51.152;4.456;2023-02-16T05:32:24;7.80;99.90
22716;DHT22;11525;51.152;4.456;2023-02-16T05:34:50;8.00;99.90
22716;DHT22;11525;51.152;4.456;2023-02-16T05:37:17;8.10;99.90
22716;DHT22;11525;51.152;4.456;2023-02-16T05:39:44;8.10;99.90
22716;DHT22;11525;51.152;4.456;2023-02-16T05:42:10;8.10;99.90
22716;DHT22;11525;51.152;4.456;2023-02-16T05:44:36;8.10;99.90
22716;DHT22;11525;51.152;4.456;2023-02-16T05:47:02;8.00;99.90
22716;DHT22;11525;51.152;4.456;2023-02-16T05:49:28;8.00;99.90
22716;DHT22;11525;51.152;4.456;2023-02-16T05:51:54;8.00;99.90
22716;DHT22;11525;51.152;4.456;2023-02-16T05:54:20;8.00;99.90
22716;DHT22;11525;51.152;4.456;2023-02-16T05:56:50;8.00;99.90
22716;DHT22;11525;51.152;4.456;2023-02-16T05:59:16;8.00;99.90
22716;DHT22;11525;51.152;4.456;2023-02-16T06:01:42;8.00;99.90
22716;DHT22;11525;51.152;4.456;2023-02-16T06:04:10;8.10;99.90
22716;DHT22;11525;51.152;4.456;2023-02-16T06:06:37;8.10;99.90
22716;DHT22;11525;51.152;4.456;2023-02-16T06:09:05;8.10;99.90
22716;DHT22;11525;51.152;4.456;2023-02-16T06:11:31;8.20;99.90
22716;DHT22;11525;51.152;4.456;2023-02-16T06:14:09;8.20;99.90
22716;DHT22;11525;51.152;4.456;2023-02-16T06:16:36;8.20;99.90
22716;DHT22;11525;51.152;4.456;2023-02-16T06:19:03;8.20;99.90
22716;DHT22;11525;51.152;4.456;2023-02-16T06:21:30;8.20;99.90
22716;DHT22;11525;51.152;4.456;2023-02-16T06:23:56;8.20;99.90
22716;DHT22;11525;51.152;4.456;2023-02-16T06:26:22;8.30;99.90
22716;DHT22;11525;51.152;4.456;2023-02-16T06:28:48;8.20;99.90
22716;DHT22;11525;51.152;4.456;2023-02-16T06:31:14;8.20;99.90
22716;DHT22;11525;51.152;4.456;2023-02-16T06:33:40;8.20;99.90
22716;DHT22;11525;51.152;4.456;2023-02-16T06:36:06;8.20;99.90
22716;DHT22;11525;51.152;4.456;2023-02-16T06:38:32;8.20;99.90
22716;DHT22;11525;51.152;4.456;2023-02-16T06:40:58;8.30;99.90
22716;DHT22;11525;51.152;4.456;2023-02-16T06:43:24;8.40;99.90
22716;DHT22;11525;51.152;4.456;2023-02-16T06:45:49;8.30;99.90
22716;DHT22;11525;51.152;4.456;2023-02-16T06:48:15;8.30;99.90
22716;DHT22;11525;51.152;4.456;2023-02-16T06:50:41;8.30;99.90
22716;DHT22;11525;51.152;4.456;2023-02-16T06:53:07;8.30;99.90
22716;DHT22;11525;51.152;4.456;2023-02-16T06:55:35;8.30;99.90
22716;DHT22;11525;51.152;4.456;2023-02-16T06:58:05;8.30;99.90
22716;DHT22;11525;51.152;4.456;2023-02-16T07:00:31;8.30;99.90
22716;DHT22;11525;51.152;4.456;2023-02-16T07:02:57;8.30;99.90
22716;DHT22;11525;51.152;4.456;2023-02-16T07:05:24;8.40;99.90
22716;DHT22;11525;51.152;4.456;2023-02-16T07:07:49;8.50;99.90
22716;DHT22;11525;51.152;4.456;2023-02-16T07:10:16;8.70;99.90
22716;DHT22;11525;51.152;4.456;2023-02-16T07:12:42;8.80;99.90
22716;DHT22;11525;51.152;4.456;2023-02-16T07:15:08;9.00;99.90
22716;DHT22;11525;51.152;4.456;2023-02-16T07:17:34;9.00;99.90
22716;DHT22;11525;51.152;4.456;2023-02-16T07:20:00;9.00;99.90
22716;DHT22;11525;51.152;4.456;2023-02-16T07:22:26;8.90;99.90
22716;DHT22;11525;51.152;4.456;2023-02-16T07:24:54;8.80;99.90
22716;DHT22;11525;51.152;4.456;2023-02-16T07:27:22;8.80;99.90
22716;DHT22;11525;51.152;4.456;2023-02-16T07:29:47;8.80;99.90
22716;DHT22;11525;51.152;4.456;2023-02-16T07:32:13;8.80;99.90
22716;DHT22;11525;51.152;4.456;2023-02-16T07:34:39;8.70;99.90
22716;DHT22;11525;51.152;4.456;2023-02-16T07:37:05;8.90;99.90
22716;DHT22;11525;51.152;4.456;2023-02-16T07:39:31;8.80;99.90
22716;DHT22;11525;51.152;4.456;2023-02-16T07:41:57;8.70;99.90
22716;DHT22;11525;51.152;4.456;2023-02-16T07:44:23;8.80;99.90
22716;DHT22;11525;51.152;4.456;2023-02-16T07:46:48;8.90;99.90
22716;DHT22;11525;51.152;4.456;2023-02-16T07:49:14;8.80;99.90
22716;DHT22;11525;51.152;4.456;2023-02-16T07:51:40;8.80;99.90
22716;DHT22;11525;51.152;4.456;2023-02-16T07:54:06;9.00;99.90
22716;DHT22;11525;51.152;4.456;2023-02-16T07:56:33;9.00;99.90
22716;DHT22;11525;51.152;4.456;2023-02-16T07:59:00;8.90;99.90
22716;DHT22;11525;51.152;4.456;2023-02-16T08:01:28;9.00;99.90
22716;DHT22;11525;51.152;4.456;2023-02-16T08:03:54;9.00;99.90
22716;DHT22;11525;51.152;4.456;2023-02-16T08:06:20;9.20;99.90
22716;DHT22;11525;51.152;4.456;2023-02-16T08:08:46;9.30;99.90
22716;DHT22;11525;51.152;4.456;2023-02-16T08:11:15;9.40;99.90
22716;DHT22;11525;51.152;4.456;2023-02-16T08:13:41;9.40;99.90
22716;DHT22;11525;51.152;4.456;2023-02-16T08:16:09;9.40;99.90
22716;DHT22;11525;51.152;4.456;2023-02-16T08:18:36;9.40;99.90
22716;DHT22;11525;51.152;4.456;2023-02-16T08:21:14;9.30;99.90
22716;DHT22;11525;51.152;4.456;2023-02-16T08:23:44;9.40;99.90
22716;DHT22;11525;51.152;4.456;2023-02-16T08:26:17;9.40;99.90
22716;DHT22;11525;51.152;4.456;2023-02-16T08:28:47;9.30;99.90
22716;DHT22;11525;51.152;4.456;2023-02-16T08:31:19;9.30;99.90
22716;DHT22;11525;51.152;4.456;2023-02-16T08:33:48;9.40;99.90
22716;DHT22;11525;51.152;4.456;2023-02-16T08:36:26;9.40;99.90
22716;DHT22;11525;51.152;4.456;2023-02-16T08:38:54;9.50;99.90
22716;DHT22;11525;51.152;4.456;2023-02-16T08:41:24;9.40;99.90
22716;DHT22;11525;51.152;4.456;2023-02-16T08:43:53;9.50;99.90
22716;DHT22;11525;51.152;4.456;2023-02-16T08:46:20;9.40;99.90
22716;DHT22;11525;51.152;4.456;2023-02-16T08:48:46;9.40;99.90
22716;DHT22;11525;51.152;4.456;2023-02-16T08:51:16;9.30;99.90
22716;DHT22;11525;51.152;4.456;2023-02-16T08:53:43;9.30;99.90
22716;DHT22;11525;51.152;4.456;2023-02-16T08:56:09;9.30;99.90
22716;DHT22;11525;51.152;4.456;2023-02-16T08:58:36;9.20;99.90
22716;DHT22;11525;51.152;4.456;2023-02-16T09:01:06;9.30;99.90
22716;DHT22;11525;51.152;4.456;2023-02-16T09:03:33;9.40;99.90
22716;DHT22;11525;51.152;4.456;2023-02-16T09:06:02;9.50;99.90
22716;DHT22;11525;51.152;4.456;2023-02-16T09:08:28;9.50;99.90
22716;DHT22;11525;51.152;4.456;2023-02-16T09:10:54;9.50;99.90
22716;DHT22;11525;51.152;4.456;2023-02-16T09:13:20;9.50;99.90
22716;DHT22;11525;51.152;4.456;2023-02-16T09:15:46;9.70;99.90
22716;DHT22;11525;51.152;4.456;2023-02-16T09:18:12;9.80;99.90
22716;DHT22;11525;51.152;4.456;2023-02-16T09:20:40;9.90;99.90
22716;DHT22;11525;51.152;4.456;2023-02-16T09:23:08;10.00;99.90
22716;DHT22;11525;51.152;4.456;2023-02-16T09:25:35;10.00;99.90
22716;DHT22;11525;51.152;4.456;2023-02-16T09:28:02;10.10;99.90
22716;DHT22;11525;51.152;4.456;2023-02-16T09:30:28;10.20;99.90
22716;DHT22;11525;51.152;4.456;2023-02-16T09:32:54;10.30;99.90
22716;DHT22;11525;51.152;4.456;2023-02-16T09:35:20;10.40;99.90
22716;DHT22;11525;51.152;4.456;2023-02-16T09:37:47;10.40;99.90
22716;DHT22;11525;51.152;4.456;2023-02-16T09:40:14;10.40;99.90
22716;DHT22;11525;51.152;4.456;2023-02-16T09:45:31;10.30;99.90
22716;DHT22;11525;51.152;4.456;2023-02-16T09:48:03;10.60;99.90
22716;DHT22;11525;51.152;4.456;2023-02-16T09:50:32;10.50;99.90
22716;DHT22;11525;51.152;4.456;2023-02-16T09:53:05;10.50;99.90
22716;DHT22;11525;51.152;4.456;2023-02-16T09:56:28;10.40;99.90
22716;DHT22;11525;51.152;4.456;2023-02-16T09:58:57;10.60;99.90
22716;DHT22;11525;51.152;4.456;2023-02-16T10:01:40;10.40;99.90
22716;DHT22;11525;51.152;4.456;2023-02-16T10:04:32;10.40;99.90
22716;DHT22;11525;51.152;4.456;2023-02-16T10:09:32;10.20;99.90
22716;DHT22;11525;51.152;4.456;2023-02-16T10:12:07;10.10;99.90
22716;DHT22;11525;51.152;4.456;2023-02-16T10:14:54;10.10;99.90
22716;DHT22;11525;51.152;4.456;2023-02-16T10:17:32;10.40;99.90
22716;DHT22;11525;51.152;4.456;2023-02-16T10:20:20;10.30;99.90
22716;DHT22;11525;51.152;4.456;2023-02-16T10:23:21;10.30;99.90
22716;DHT22;11525;51.152;4.456;2023-02-16T10:25:56;10.40;99.90
22716;DHT22;11525;51.152;4.456;2023-02-16T10:28:44;10.60;99.90
22716;DHT22;11525;51.152;4.456;2023-02-16T10:37:03;10.80;99.90
22716;DHT22;11525;51.152;4.456;2023-02-16T10:42:28;10.30;99.90
22716;DHT22;11525;51.152;4.456;2023-02-16T10:45:19;10.40;99.90
22716;DHT22;11525;51.152;4.456;2023-02-16T10:47:46;10.40;99.90
22716;DHT22;11525;51.152;4.456;2023-02-16T10:50:21;10.50;99.90
22716;DHT22;11525;51.152;4.456;2023-02-16T10:52:48;10.60;99.90
22716;DHT22;11525;51.152;4.456;2023-02-16T10:55:15;10.70;99.90
22716;DHT22;11525;51.152;4.456;2023-02-16T10:57:41;10.80;99.90
22716;DHT22;11525;51.152;4.456;2023-02-16T11:00:14;11.20;99.90
22716;DHT22;11525;51.152;4.456;2023-02-16T11:02:44;11.30;99.90
22716;DHT22;11525;51.152;4.456;2023-02-16T11:05:37;11.40;99.90
22716;DHT22;11525;51.152;4.456;2023-02-16T11:08:08;11.80;99.90
22716;DHT22;11525;51.152;4.456;2023-02-16T11:10:44;12.00;99.90
22716;DHT22;11525;51.152;4.456;2023-02-16T11:13:33;12.40;99.90
22716;DHT22;11525;51.152;4.456;2023-02-16T11:16:09;12.60;99.90
22716;DHT22;11525;51.152;4.456;2023-02-16T11:18:44;12.70;99.90
22716;DHT22;11525;51.152;4.456;2023-02-16T11:21:11;12.90;99.90
22716;DHT22;11525;51.152;4.456;2023-02-16T11:23:42;12.80;99.90
22716;DHT22;11525;51.152;4.456;2023-02-16T11:28:38;12.80;99.90
22716;DHT22;11525;51.152;4.456;2023-02-16T11:33:58;12.70;99.90
22716;DHT22;11525;51.152;4.456;2023-02-16T11:36:40;12.70;99.90
22716;DHT22;11525;51.152;4.456;2023-02-16T11:39:22;12.90;99.90
22716;DHT22;11525;51.152;4.456;2023-02-16T11:41:57;13.20;99.90
22716;DHT22;11525;51.152;4.456;2023-02-16T11:44:37;13.20;99.90
22716;DHT22;11525;51.152;4.456;2023-02-16T11:47:29;13.40;99.90
22716;DHT22;11525;51.152;4.456;2023-02-16T11:50:24;13.20;99.90
22716;DHT22;11525;51.152;4.456;2023-02-16T11:52:56;13.40;99.90
22716;DHT22;11525;51.152;4.456;2023-02-16T11:55:30;13.50;99.90
22716;DHT22;11525;51.152;4.456;2023-02-16T11:58:18;13.60;99.90
22716;DHT22;11525;51.152;4.456;2023-02-16T12:04:02;13.60;99.90
22716;DHT22;11525;51.152;4.456;2023-02-16T12:19:58;14.10;99.90
22716;DHT22;11525;51.152;4.456;2023-02-16T12:22:38;14.30;99.90
22716;DHT22;11525;51.152;4.456;2023-02-16T12:30:58;14.10;99.90
22716;DHT22;11525;51.152;4.456;2023-02-16T12:36:27;14.30;99.90
22716;DHT22;11525;51.152;4.456;2023-02-16T12:42:32;14.60;99.90
22716;DHT22;11525;51.152;4.456;2023-02-16T12:45:18;14.50;99.90
22716;DHT22;11525;51.152;4.456;2023-02-16T12:50:34;14.80;99.90
22716;DHT22;11525;51.152;4.456;2023-02-16T12:53:20;14.80;99.90
22716;DHT22;11525;51.152;4.456;2023-02-16T12:55:58;14.90;99.90
22716;DHT22;11525;51.152;4.456;2023-02-16T12:58:29;15.10;99.90
22716;DHT22;11525;51.152;4.456;2023-02-16T13:01:02;15.10;99.90
22716;DHT22;11525;51.152;4.456;2023-02-16T13:03:50;15.00;99.90
22716;DHT22;11525;51.152;4.456;2023-02-16T13:06:31;14.60;99.90
22716;DHT22;11525;51.152;4.456;2023-02-16T13:12:06;14.60;99.90
22716;DHT22;11525;51.152;4.456;2023-02-16T13:14:35;14.70;99.90
22716;DHT22;11525;51.152;4.456;2023-02-16T13:17:10;14.70;99.90
22716;DHT22;11525;51.152;4.456;2023-02-16T13:19:37;14.80;99.90
22716;DHT22;11525;51.152;4.456;2023-02-16T13:30:43;14.80;99.90
22716;DHT22;11525;51.152;4.456;2023-02-16T13:33:31;14.80;99.90
22716;DHT22;11525;51.152;4.456;2023-02-16T13:36:27;14.60;99.90
22716;DHT22;11525;51.152;4.456;2023-02-16T13:39:29;14.10;99.90
22716;DHT22;11525;51.152;4.456;2023-02-16T13:44:50;14.30;99.90
22716;DHT22;11525;51.152;4.456;2023-02-16T13:47:26;14.10;99.90
22716;DHT22;11525;51.152;4.456;2023-02-16T13:50:01;14.00;99.90
22716;DHT22;11525;51.152;4.456;2023-02-16T13:52:40;14.10;99.90
22716;DHT22;11525;51.152;4.456;2023-02-16T13:55:24;14.20;99.90
22716;DHT22;11525;51.152;4.456;2023-02-16T13:57:59;14.30;99.90
22716;DHT22;11525;51.152;4.456;2023-02-16T14:00:30;14.20;99.90
22716;DHT22;11525;51.152;4.456;2023-02-16T14:07:20;14.40;99.90
22716;DHT22;11525;51.152;4.456;2023-02-16T14:12:00;14.10;99.90
22716;DHT22;11525;51.152;4.456;2023-02-16T14:14:33;14.30;99.90
22716;DHT22;11525;51.152;4.456;2023-02-16T14:22:52;14.60;99.90
22716;DHT22;11525;51.152;4.456;2023-02-16T14:28:54;14.30;99.90
22716;DHT22;11525;51.152;4.456;2023-02-16T14:30:52;14.20;99.90
22716;DHT22;11525;51.152;4.456;2023-02-16T14:33:38;14.30;99.90
22716;DHT22;11525;51.152;4.456;2023-02-16T14:36:13;14.20;99.90
22716;DHT22;11525;51.152;4.456;2023-02-16T14:44:22;14.10;99.90
22716;DHT22;11525;51.152;4.456;2023-02-16T14:47:04;13.90;99.90
22716;DHT22;11525;51.152;4.456;2023-02-16T14:49:44;14.00;99.90
22716;DHT22;11525;51.152;4.456;2023-02-16T15:01:12;13.90;99.90
22716;DHT22;11525;51.152;4.456;2023-02-16T15:03:49;13.90;99.90
22716;DHT22;11525;51.152;4.456;2023-02-16T15:06:25;14.00;99.90
22716;DHT22;11525;51.152;4.456;2023-02-16T15:08:55;13.80;99.90
22716;DHT22;11525;51.152;4.456;2023-02-16T15:11:33;13.80;99.90
22716;DHT22;11525;51.152;4.456;2023-02-16T15:14:10;13.80;99.90
22716;DHT22;11525;51.152;4.456;2023-02-16T15:16:40;13.60;99.90
22716;DHT22;11525;51.152;4.456;2023-02-16T15:19:14;13.40;99.90
22716;DHT22;11525;51.152;4.456;2023-02-16T15:21:41;13.50;99.90
22716;DHT22;11525;51.152;4.456;2023-02-16T15:24:20;13.30;99.90
22716;DHT22;11525;51.152;4.456;2023-02-16T15:26:54;13.40;99.90
22716;DHT22;11525;51.152;4.456;2023-02-16T15:29:23;13.40;99.90
22716;DHT22;11525;51.152;4.456;2023-02-16T15:31:52;13.50;99.90
22716;DHT22;11525;51.152;4.456;2023-02-16T15:34:27;13.40;99.90
22716;DHT22;11525;51.152;4.456;2023-02-16T15:36:54;13.30;99.90
22716;DHT22;11525;51.152;4.456;2023-02-16T15:39:32;13.20;99.90
22716;DHT22;11525;51.152;4.456;2023-02-16T15:42:19;13.10;99.90
22716;DHT22;11525;51.152;4.456;2023-02-16T15:44:45;13.10;99.90
22716;DHT22;11525;51.152;4.456;2023-02-16T15:47:21;13.10;99.90
22716;DHT22;11525;51.152;4.456;2023-02-16T15:49:47;13.50;99.90
22716;DHT22;11525;51.152;4.456;2023-02-16T15:52:33;13.60;99.90
22716;DHT22;11525;51.152;4.456;2023-02-16T15:55:01;13.50;99.90
22716;DHT22;11525;51.152;4.456;2023-02-16T15:57:31;13.40;99.90
22716;DHT22;11525;51.152;4.456;2023-02-16T16:00:03;13.30;99.90
22716;DHT22;11525;51.152;4.456;2023-02-16T16:02:37;13.30;99.90
22716;DHT22;11525;51.152;4.456;2023-02-16T16:05:18;13.20;99.90
22716;DHT22;11525;51.152;4.456;2023-02-16T16:07:45;13.10;99.90
22716;DHT22;11525;51.152;4.456;2023-02-16T16:10:19;13.00;99.90
22716;DHT22;11525;51.152;4.456;2023-02-16T16:12:46;12.90;99.90
22716;DHT22;11525;51.152;4.456;2023-02-16T16:15:21;12.80;99.90
22716;DHT22;11525;51.152;4.456;2023-02-16T16:17:49;12.80;99.90
22716;DHT22;11525;51.152;4.456;2023-02-16T16:23:03;12.80;99.90
22716;DHT22;11525;51.152;4.456;2023-02-16T16:27:59;12.60;99.90
22716;DHT22;11525;51.152;4.456;2023-02-16T16:30:26;12.70;99.90
22716;DHT22;11525;51.152;4.456;2023-02-16T16:35:47;12.70;99.90
22716;DHT22;11525;51.152;4.456;2023-02-16T16:40:58;12.70;99.90
22716;DHT22;11525;51.152;4.456;2023-02-16T16:43:31;12.60;99.90
22716;DHT22;11525;51.152;4.456;2023-02-16T16:46:18;12.60;99.90
22716;DHT22;11525;51.152;4.456;2023-02-16T16:48:46;12.70;99.90
22716;DHT22;11525;51.152;4.456;2023-02-16T16:51:14;12.70;99.90
22716;DHT22;11525;51.152;4.456;2023-02-16T16:53:57;12.70;99.90
22716;DHT22;11525;51.152;4.456;2023-02-16T16:56:28;12.60;99.90
22716;DHT22;11525;51.152;4.456;2023-02-16T16:58:57;12.60;99.90
22716;DHT22;11525;51.152;4.456;2023-02-16T17:01:24;12.50;99.90
22716;DHT22;11525;51.152;4.456;2023-02-16T17:03:50;12.50;99.90
22716;DHT22;11525;51.152;4.456;2023-02-16T17:06:17;12.50;99.90
22716;DHT22;11525;51.152;4.456;2023-02-16T17:08:43;12.50;99.90
22716;DHT22;11525;51.152;4.456;2023-02-16T17:11:23;12.50;99.90
22716;DHT22;11525;51.152;4.456;2023-02-16T17:13:50;12.50;99.90
22716;DHT22;11525;51.152;4.456;2023-02-16T17:16:23;12.30;99.90
22716;DHT22;11525;51.152;4.456;2023-02-16T17:18:50;12.40;99.90
22716;DHT22;11525;51.152;4.456;2023-02-16T17:21:16;12.50;99.90
22716;DHT22;11525;51.152;4.456;2023-02-16T17:23:42;12.60;99.90
22716;DHT22;11525;51.152;4.456;2023-02-16T17:26:08;12.60;99.90
22716;DHT22;11525;51.152;4.456;2023-02-16T17:28:33;12.50;99.90
22716;DHT22;11525;51.152;4.456;2023-02-16T17:31:05;12.40;99.90
22716;DHT22;11525;51.152;4.456;2023-02-16T17:33:31;12.40;99.90
22716;DHT22;11525;51.152;4.456;2023-02-16T17:35:58;12.40;99.90
22716;DHT22;11525;51.152;4.456;2023-02-16T17:38:25;12.70;99.90
22716;DHT22;11525;51.152;4.456;2023-02-16T17:40:53;12.70;99.90
22716;DHT22;11525;51.152;4.456;2023-02-16T17:43:20;12.70;99.90
22716;DHT22;11525;51.152;4.456;2023-02-16T17:45:47;12.60;99.90
22716;DHT22;11525;51.152;4.456;2023-02-16T17:48:24;12.50;99.90
22716;DHT22;11525;51.152;4.456;2023-02-16T17:50:50;12.50;99.90
22716;DHT22;11525;51.152;4.456;2023-02-16T17:53:21;12.50;99.90
22716;DHT22;11525;51.152;4.456;2023-02-16T17:55:49;12.50;99.90
22716;DHT22;11525;51.152;4.456;2023-02-16T17:58:16;12.40;99.90
22716;DHT22;11525;51.152;4.456;2023-02-16T18:00:42;12.30;99.90
22716;DHT22;11525;51.152;4.456;2023-02-16T18:03:09;12.30;99.90
22716;DHT22;11525;51.152;4.456;2023-02-16T18:05:35;12.20;99.90
22716;DHT22;11525;51.152;4.456;2023-02-16T18:08:01;12.20;99.90
22716;DHT22;11525;51.152;4.456;2023-02-16T18:12:58;12.20;99.90
22716;DHT22;11525;51.152;4.456;2023-02-16T18:15:24;12.20;99.90
22716;DHT22;11525;51.152;4.456;2023-02-16T18:17:50;12.10;99.90
22716;DHT22;11525;51.152;4.456;2023-02-16T18:20:16;11.90;99.90
22716;DHT22;11525;51.152;4.456;2023-02-16T18:22:42;11.80;99.90
22716;DHT22;11525;51.152;4.456;2023-02-16T18:25:08;11.90;99.90